createdAt,value
2019-05-10T00:02:07.531Z,62513.34
2019-05-10T00:04:51.907Z,62507.51
2019-05-10T00:07:37.135Z,62511.92
2019-05-10T00:10:04.780Z,62512.89
2019-05-10T00:12:38.890Z,62509.09
2019-05-10T00:15:05.946Z,62498.36
2019-05-10T00:17:32.181Z,62492.05
2019-05-10T00:19:58.428Z,62489.66
2019-05-10T00:22:24.701Z,62492.11
2019-05-10T00:25:03.228Z,62478.81
2019-05-10T00:27:19.157Z,62478.35
2019-05-10T00:29:45.404Z,62471.23
2019-05-10T00:32:11.645Z,62471.08
2019-05-10T00:34:37.883Z,62470.01
2019-05-10T00:37:04.128Z,62463.48
2019-05-10T00:39:30.361Z,62452.04
2019-05-10T00:41:56.607Z,62455.97
2019-05-10T00:44:22.838Z,62448.24
2019-05-10T00:46:49.093Z,62445.38
2019-05-10T00:49:15.342Z,62435.42
2019-05-10T00:51:41.585Z,62433.85
2019-05-10T00:54:07.813Z,62424.03
2019-05-10T00:56:34.066Z,62421.71
2019-05-10T00:59:00.299Z,62417.37
2019-05-10T01:01:26.541Z,62406.81
2019-05-10T01:03:52.771Z,62403.55
2019-05-10T01:06:19.040Z,62407.96
2019-05-10T01:08:45.263Z,62400.70
2019-05-10T01:11:11.503Z,62401.86
2019-05-10T01:13:37.736Z,62394.20
2019-05-10T01:16:03.979Z,62389.11
2019-05-10T01:18:30.207Z,62390.20
2019-05-10T01:20:56.451Z,62389.11
2019-05-10T01:23:22.682Z,62381.19
2019-05-10T01:25:48.916Z,62370.89
2019-05-10T01:28:15.189Z,62370.00
2019-05-10T01:30:41.425Z,62365.81
2019-05-10T01:33:07.676Z,62360.92
2019-05-10T01:35:33.903Z,62353.88
2019-05-10T01:38:00.354Z,62353.00
2019-05-10T01:40:26.588Z,62347.38
2019-05-10T01:42:52.831Z,62345.61
2019-05-10T01:45:19.054Z,62343.93
2019-05-10T01:47:45.327Z,62349.89
2019-05-10T01:50:11.569Z,62357.74
2019-05-10T01:52:37.819Z,62344.13
2019-05-10T01:55:06.179Z,62344.67
2019-05-10T01:57:32.433Z,62338.91
2019-05-10T01:59:58.663Z,62331.33
2019-05-10T02:02:24.923Z,62328.47
2019-05-10T02:04:51.176Z,62330.65
2019-05-10T02:07:17.403Z,62324.48
2019-05-10T02:09:43.661Z,62321.78
2019-05-10T02:12:09.889Z,62323.06
2019-05-10T02:14:36.145Z,62325.90
2019-05-10T02:17:02.386Z,62326.86
2019-05-10T02:19:28.650Z,62331.72
2019-05-10T02:21:54.907Z,62328.27
2019-05-10T02:24:21.245Z,62334.84
2019-05-10T02:26:47.478Z,62332.13
2019-05-10T02:29:13.741Z,62324.48
2019-05-10T02:31:39.975Z,62327.53
2019-05-10T02:34:06.330Z,62327.53
2019-05-10T02:36:32.564Z,62326.79
2019-05-10T02:38:58.810Z,62329.50
2019-05-10T02:41:25.065Z,62312.23
2019-05-10T02:43:51.337Z,62344.54
2019-05-10T02:46:17.635Z,62346.57
2019-05-10T02:48:43.890Z,62339.25
2019-05-10T02:51:10.177Z,62340.88
2019-05-10T02:53:36.621Z,62345.83
2019-05-10T02:56:03.028Z,62348.73
2019-05-10T02:58:31.703Z,62346.29
2019-05-10T03:01:00.286Z,62353.40
2019-05-10T03:03:29.789Z,62359.16
2019-05-10T03:05:57.732Z,62364.04
2019-05-10T03:08:24.013Z,62366.88
2019-05-10T03:10:56.272Z,62378.55
2019-05-10T03:13:29.070Z,62381.39
2019-05-10T03:15:57.725Z,62387.15
2019-05-10T03:18:27.055Z,62393.10
2019-05-10T03:20:56.923Z,62399.08
2019-05-10T03:23:24.754Z,62407.96
2019-05-10T03:25:50.968Z,62415.69
2019-05-10T03:28:17.217Z,62441.65
2019-05-10T03:30:43.452Z,62444.29
2019-05-10T03:33:09.809Z,62449.11
2019-05-10T03:35:36.024Z,62458.74
2019-05-10T03:38:02.262Z,62468.37
2019-05-10T03:40:28.502Z,62477.06
2019-05-10T03:42:54.760Z,62483.83
2019-05-10T03:45:20.987Z,62500.52
2019-05-10T03:47:47.261Z,62517.63
2019-05-10T03:50:13.788Z,62525.49
2019-05-10T03:52:40.054Z,62542.19
2019-05-10T03:55:06.484Z,62560.46
2019-05-10T03:57:32.741Z,62577.64
2019-05-10T03:59:58.967Z,62597.61
2019-05-10T04:02:25.242Z,62614.38
2019-05-10T04:04:51.456Z,62636.53
2019-05-10T04:07:17.710Z,62656.44
2019-05-10T04:09:43.947Z,62685.11
2019-05-10T04:12:10.189Z,62712.10
2019-05-10T04:14:36.435Z,62743.67
2019-05-10T04:17:02.671Z,62778.82
2019-05-10T04:19:28.916Z,62826.27
2019-05-10T04:21:55.164Z,62875.09
2019-05-10T04:24:21.412Z,62932.52
2019-05-10T04:26:47.665Z,62984.80
2019-05-10T04:29:13.935Z,63040.44
2019-05-10T04:31:40.148Z,63095.32
2019-05-10T04:34:06.422Z,63141.91
2019-05-10T04:36:32.687Z,63187.45
2019-05-10T04:38:58.944Z,63233.51
2019-05-10T04:41:25.161Z,63280.95
2019-05-10T04:43:51.407Z,63315.87
2019-05-10T04:46:17.643Z,63343.25
2019-05-10T04:48:43.885Z,63379.82
2019-05-10T04:51:10.145Z,63437.64
2019-05-10T04:53:36.389Z,63451.16
2019-05-10T04:56:02.637Z,63487.53
2019-05-10T04:58:28.866Z,63463.30
2019-05-10T05:00:55.115Z,63542.66
2019-05-10T05:03:21.350Z,63603.91
2019-05-10T05:05:47.589Z,63649.36
2019-05-10T05:08:13.834Z,63698.33
2019-05-10T05:10:40.076Z,63735.67
2019-05-10T05:13:06.309Z,63743.36
2019-05-10T05:15:32.557Z,63729.08
2019-05-10T05:17:58.786Z,63743.15
2019-05-10T05:20:25.195Z,63766.89
2019-05-10T05:22:51.470Z,63787.35
2019-05-10T05:25:17.703Z,63828.57
2019-05-10T05:27:43.924Z,63892.80
2019-05-10T05:30:10.379Z,63948.20
2019-05-10T05:32:38.607Z,63961.41
2019-05-10T05:35:04.855Z,63929.48
2019-05-10T05:37:31.096Z,63977.93
2019-05-10T05:39:57.336Z,63973.53
2019-05-10T05:42:27.910Z,63998.19
2019-05-10T05:44:51.717Z,64024.85
2019-05-10T05:47:17.960Z,64033.22
2019-05-10T05:49:44.195Z,64029.92
2019-05-10T05:52:10.450Z,64080.08
2019-05-10T05:54:36.671Z,64092.19
2019-05-10T05:57:02.921Z,64137.96
2019-05-10T05:59:29.172Z,64184.41
2019-05-10T06:02:00.873Z,64187.05
2019-05-10T06:04:23.572Z,64245.86
2019-05-10T06:06:53.849Z,64225.79
2019-05-10T06:09:17.965Z,64227.33
2019-05-10T06:11:44.213Z,64227.12
2019-05-10T06:14:12.607Z,64187.39
2019-05-10T06:16:38.579Z,64251.50
2019-05-10T06:19:05.647Z,64333.12
2019-05-10T06:21:31.894Z,64317.67
2019-05-10T06:23:59.491Z,64303.85
2019-05-10T06:26:28.648Z,64299.45
2019-05-10T06:28:59.466Z,64297.78
2019-05-10T06:31:22.483Z,64316.90
2019-05-10T06:33:48.745Z,64265.64
2019-05-10T06:36:15.000Z,64310.15
2019-05-10T06:38:41.245Z,64367.70
2019-05-10T06:41:09.969Z,64403.00
2019-05-10T06:43:35.645Z,64400.55
2019-05-10T06:46:01.915Z,64431.74
2019-05-10T06:48:33.278Z,64473.53
2019-05-10T06:50:56.333Z,64417.13
2019-05-10T06:53:23.371Z,64379.20
2019-05-10T06:55:49.842Z,64443.88
2019-05-10T06:58:16.139Z,64442.67
2019-05-10T07:00:44.926Z,64361.31
2019-05-10T07:03:10.527Z,64361.31
2019-05-10T07:05:36.779Z,64357.66
2019-05-10T07:08:13.993Z,64441.46
2019-05-10T07:10:33.813Z,64394.34
2019-05-10T07:13:03.596Z,64417.80
2019-05-10T07:15:27.497Z,64444.78
2019-05-10T07:17:53.734Z,64492.34
2019-05-10T07:20:23.767Z,64428.64
2019-05-10T07:22:48.152Z,64419.79
2019-05-10T07:25:14.378Z,64362.85
2019-05-10T07:27:40.633Z,64345.18
2019-05-10T07:30:06.883Z,64345.18
2019-05-10T07:32:33.108Z,64412.94
2019-05-10T07:35:01.051Z,64378.33
2019-05-10T07:37:27.429Z,64242.79
2019-05-10T07:39:53.685Z,64295.80
2019-05-10T07:42:20.239Z,64279.99
2019-05-10T07:44:48.680Z,64248.08
2019-05-10T07:47:14.654Z,64175.04
2019-05-10T07:49:40.902Z,64152.96
2019-05-10T07:52:07.151Z,64089.23
2019-05-10T07:54:37.535Z,64076.22
2019-05-10T07:57:01.528Z,64023.64
2019-05-10T07:59:32.427Z,64040.04
2019-05-10T08:01:55.928Z,64059.78
2019-05-10T08:04:28.841Z,64088.46
2019-05-10T08:06:52.104Z,64055.95
2019-05-10T08:09:19.226Z,64059.46
2019-05-10T08:11:48.343Z,64031.12
2019-05-10T08:14:13.957Z,64068.82
2019-05-10T08:16:40.241Z,64028.05
2019-05-10T08:19:06.482Z,64048.45
2019-05-10T08:21:32.733Z,64029.69
2019-05-10T08:24:04.351Z,64041.47
2019-05-10T08:26:27.167Z,64068.29
2019-05-10T08:28:53.389Z,64145.68
2019-05-10T08:31:21.797Z,64206.13
2019-05-10T08:33:53.630Z,64252.16
2019-05-10T08:36:15.948Z,64252.82
2019-05-10T08:38:46.259Z,64288.84
2019-05-10T08:41:14.851Z,64370.14
2019-05-10T08:43:40.101Z,64297.78
2019-05-10T08:46:06.677Z,64272.36
2019-05-10T08:48:33.174Z,64326.50
2019-05-10T08:51:04.013Z,64356.33
2019-05-10T08:53:27.721Z,64385.51
2019-05-10T08:55:53.962Z,64385.51
2019-05-10T08:58:31.071Z,64324.85
2019-05-10T09:00:54.804Z,64248.75
2019-05-10T09:03:18.531Z,64248.75
2019-05-10T09:05:44.721Z,64323.63
2019-05-10T09:08:19.682Z,64358.21
2019-05-10T09:10:39.149Z,64358.21
2019-05-10T09:13:05.421Z,64290.50
2019-05-10T09:15:33.147Z,64342.63
2019-05-10T09:18:04.354Z,64309.17
2019-05-10T09:20:27.777Z,64328.93
2019-05-10T09:22:54.025Z,64383.84
2019-05-10T09:25:26.446Z,64346.95
2019-05-10T09:27:48.441Z,64312.91
2019-05-10T09:30:27.298Z,64323.85
2019-05-10T09:32:53.555Z,64330.92
2019-05-10T09:35:22.041Z,64330.92
2019-05-10T09:37:54.131Z,64386.84
2019-05-10T09:40:16.169Z,64416.04
2019-05-10T09:42:43.715Z,64432.83
2019-05-10T09:45:12.828Z,64406.85
2019-05-10T09:47:39.061Z,64252.38
2019-05-10T09:50:05.319Z,64338.66
2019-05-10T09:52:31.581Z,64378.43
2019-05-10T09:54:57.849Z,64368.49
2019-05-10T09:57:24.107Z,64302.76
2019-05-10T09:59:50.356Z,64297.23
2019-05-10T10:02:18.955Z,64341.75
2019-05-10T10:04:47.225Z,64397.80
2019-05-10T10:07:12.929Z,64438.92
2019-05-10T10:09:44.511Z,64454.84
2019-05-10T10:12:07.691Z,64507.95
2019-05-10T10:14:39.459Z,64524.66
2019-05-10T10:17:03.240Z,64549.77
2019-05-10T10:19:29.865Z,64491.44
2019-05-10T10:21:57.647Z,64452.96
2019-05-10T10:24:24.668Z,64350.26
2019-05-10T10:26:53.875Z,64407.40
2019-05-10T10:29:19.088Z,64481.15
2019-05-10T10:31:54.601Z,64509.62
2019-05-10T10:34:13.481Z,64594.29
2019-05-10T10:36:43.784Z,64587.19
2019-05-10T10:39:07.892Z,64608.36
2019-05-10T10:41:34.134Z,64625.76
2019-05-10T10:44:00.367Z,64565.15
2019-05-10T10:46:28.026Z,64619.78
2019-05-10T10:48:54.476Z,64670.49
2019-05-10T10:51:20.771Z,64621.21
2019-05-10T10:53:47.225Z,64627.51
2019-05-10T10:56:13.482Z,64613.45
2019-05-10T10:58:39.724Z,64566.48
2019-05-10T11:01:10.718Z,64510.06
2019-05-10T11:03:35.128Z,64530.63
2019-05-10T11:06:01.364Z,64558.08
2019-05-10T11:08:27.610Z,64577.89
2019-05-10T11:10:54.175Z,64599.06
2019-05-10T11:13:39.884Z,64603.25
2019-05-10T11:15:48.552Z,64473.75
2019-05-10T11:18:14.818Z,64450.20
2019-05-10T11:20:49.053Z,64431.61
2019-05-10T11:23:10.694Z,64581.89
2019-05-10T11:25:42.779Z,64587.97
2019-05-10T11:28:08.903Z,64554.30
2019-05-10T11:30:33.468Z,64607.91
2019-05-10T11:33:00.547Z,64526.20
2019-05-10T11:35:31.223Z,64531.51
2019-05-10T11:37:55.031Z,64493.67
2019-05-10T11:40:29.859Z,64483.49
2019-05-10T11:42:51.077Z,64480.60
2019-05-10T11:45:18.162Z,64542.82
2019-05-10T11:47:48.127Z,64572.70
2019-05-10T11:50:27.652Z,64549.89
2019-05-10T11:52:41.610Z,64492.88
2019-05-10T11:55:08.365Z,64529.30
2019-05-10T11:57:34.590Z,64593.18
2019-05-10T12:00:00.835Z,64576.02
2019-05-10T12:02:37.324Z,64561.39
2019-05-10T12:04:55.215Z,64536.28
2019-05-10T12:07:24.652Z,64551.54
2019-05-10T12:09:53.305Z,64572.03
2019-05-10T12:12:29.703Z,64542.57
2019-05-10T12:14:46.655Z,64556.53
2019-05-10T12:17:14.259Z,64576.44
2019-05-10T12:19:47.636Z,64618.45
2019-05-10T12:22:08.905Z,64614.01
2019-05-10T12:24:52.499Z,64603.50
2019-05-10T12:27:16.843Z,64585.98
2019-05-10T12:29:31.774Z,64591.96
2019-05-10T12:31:58.138Z,64583.21
2019-05-10T12:34:24.481Z,64517.68
2019-05-10T12:36:51.952Z,64558.85
2019-05-10T12:39:18.487Z,64534.51
2019-05-10T12:41:48.615Z,64508.17
2019-05-10T12:44:12.851Z,64538.59
2019-05-10T12:46:42.097Z,64554.20
2019-05-10T12:49:07.249Z,64607.91
2019-05-10T12:51:33.479Z,64611.25
2019-05-10T12:53:59.754Z,64565.05
2019-05-10T12:56:25.975Z,64608.70
2019-05-10T12:58:57.705Z,64654.44
2019-05-10T13:01:25.507Z,64626.52
2019-05-10T13:03:48.522Z,64617.89
2019-05-10T13:06:14.745Z,64621.87
2019-05-10T13:08:40.993Z,64588.18
2019-05-10T13:11:07.220Z,64583.21
2019-05-10T13:13:33.518Z,64549.35
2019-05-10T13:16:03.711Z,64460.04
2019-05-10T13:18:49.252Z,64461.57
2019-05-10T13:20:56.032Z,64430.84
2019-05-10T13:23:22.302Z,64348.38
2019-05-10T13:25:48.552Z,64347.05
2019-05-10T13:28:14.816Z,64328.37
2019-05-10T13:30:41.263Z,64313.91
2019-05-10T13:33:07.525Z,64285.39
2019-05-10T13:35:33.770Z,64297.12
2019-05-10T13:38:03.648Z,64313.14
2019-05-10T13:40:28.205Z,64308.62
2019-05-10T13:42:54.446Z,64292.94
2019-05-10T13:45:20.710Z,64302.42
2019-05-10T13:47:46.960Z,64272.36
2019-05-10T13:50:14.009Z,64264.87
2019-05-10T13:52:41.429Z,64232.84
2019-05-10T13:55:07.999Z,64210.79
2019-05-10T13:57:34.233Z,64214.09
2019-05-10T14:00:02.494Z,64221.48
2019-05-10T14:02:33.212Z,64204.81
2019-05-10T14:04:56.755Z,64182.74
2019-05-10T14:07:23.036Z,64200.52
2019-05-10T14:09:49.252Z,64213.20
2019-05-10T14:12:16.188Z,64192.24
2019-05-10T14:14:43.671Z,64160.55
2019-05-10T14:17:09.915Z,64148.65
2019-05-10T14:19:36.513Z,64147.32
2019-05-10T14:22:02.819Z,64143.46
2019-05-10T14:24:29.078Z,64161.34
2019-05-10T14:26:57.361Z,64186.39
2019-05-10T14:29:33.530Z,64166.21
2019-05-10T14:31:51.619Z,64173.27
2019-05-10T14:34:17.832Z,64172.39
2019-05-10T14:36:44.082Z,64175.70
2019-05-10T14:39:10.355Z,64161.00
2019-05-10T14:41:39.597Z,64159.46
2019-05-10T14:44:04.749Z,64161.34
2019-05-10T14:46:31.001Z,64152.06
2019-05-10T14:48:57.231Z,64147.54
2019-05-10T14:51:38.707Z,64120.08
2019-05-10T14:53:51.626Z,64145.00
2019-05-10T14:56:17.872Z,64158.91
2019-05-10T14:58:44.116Z,64156.03
2019-05-10T15:01:10.364Z,64158.01
2019-05-10T15:03:45.471Z,64159.12
2019-05-10T15:06:04.737Z,64149.20
2019-05-10T15:08:30.994Z,64144.12
2019-05-10T15:11:00.065Z,64149.20
2019-05-10T15:13:28.322Z,64156.58
2019-05-10T15:15:54.469Z,64162.43
2019-05-10T15:20:49.093Z,64131.45
2019-05-10T15:23:15.346Z,64139.17
2019-05-10T15:25:55.711Z,64127.36
2019-05-10T15:28:09.759Z,64102.00
2019-05-10T15:30:39.395Z,64086.13
2019-05-10T15:33:04.136Z,64081.72
2019-05-10T15:35:30.385Z,64062.11
2019-05-10T15:37:56.613Z,64062.55
2019-05-10T15:40:22.859Z,64064.30
2019-05-10T15:42:49.092Z,64071.80
2019-05-10T15:45:19.251Z,64076.22
2019-05-10T15:47:51.429Z,64084.92
2019-05-10T15:50:12.567Z,64085.26
2019-05-10T15:52:39.656Z,64071.14
2019-05-10T15:55:07.042Z,64060.44
2019-05-10T15:57:33.296Z,64049.98
2019-05-10T15:59:59.521Z,64026.07
2019-05-10T16:02:25.761Z,64005.91
2019-05-10T16:04:51.982Z,64010.43
2019-05-10T16:07:18.210Z,64014.26
2019-05-10T16:09:44.445Z,64007.33
2019-05-10T16:12:10.666Z,63986.52
2019-05-10T16:14:39.253Z,63978.36
2019-05-10T16:17:10.380Z,63980.57
2019-05-10T16:19:33.173Z,63971.54
2019-05-10T16:21:59.397Z,63966.79
2019-05-10T16:24:27.695Z,63956.34
2019-05-10T16:26:54.628Z,63955.57
2019-05-10T16:29:21.910Z,63968.55
2019-05-10T16:31:48.148Z,63969.01
2019-05-10T16:34:14.393Z,63958.98
2019-05-10T16:36:40.620Z,63975.71
2019-05-10T16:39:06.976Z,63975.50
2019-05-10T16:41:33.243Z,63975.61
2019-05-10T16:44:00.205Z,63982.00
2019-05-10T16:46:26.649Z,63981.34
2019-05-10T16:48:52.896Z,63980.57
2019-05-10T16:51:19.157Z,63968.35
2019-05-10T16:53:45.976Z,63975.61
2019-05-10T16:56:13.439Z,63971.54
2019-05-10T16:58:40.469Z,63957.89
2019-05-10T17:01:06.717Z,63946.22
2019-05-10T17:03:32.942Z,63935.77
2019-05-10T17:06:04.231Z,63921.99
2019-05-10T17:08:30.685Z,63922.54
2019-05-10T17:10:55.457Z,63912.53
2019-05-10T17:13:21.706Z,63896.45
2019-05-10T17:15:47.947Z,63886.76
2019-05-10T17:18:17.798Z,63885.99
2019-05-10T17:20:45.340Z,63890.40
2019-05-10T17:23:11.267Z,63893.91
2019-05-10T17:25:40.541Z,63900.09
2019-05-10T17:28:05.860Z,63901.96
2019-05-10T17:30:32.087Z,63899.63
2019-05-10T17:33:04.106Z,63880.93
2019-05-10T17:35:26.484Z,63875.75
2019-05-10T17:37:53.121Z,63875.20
2019-05-10T17:40:19.570Z,63853.33
2019-05-10T17:42:45.819Z,63850.24
2019-05-10T17:45:12.171Z,63840.45
2019-05-10T17:47:38.440Z,63841.66
2019-05-10T17:50:05.865Z,63831.33
2019-05-10T17:52:32.152Z,63824.05
2019-05-10T17:54:58.379Z,63812.08
2019-05-10T17:57:24.629Z,63817.80
2019-05-10T17:59:53.096Z,63821.86
2019-05-10T18:02:19.023Z,63815.71
2019-05-10T18:04:45.261Z,63797.12
2019-05-10T18:07:11.488Z,63784.05
2019-05-10T18:09:37.736Z,63792.06
2019-05-10T18:12:03.988Z,63788.87
2019-05-10T18:14:30.225Z,63787.79
2019-05-10T18:16:56.492Z,63783.04
2019-05-10T18:19:24.655Z,63777.46
2019-05-10T18:21:54.970Z,63770.85
2019-05-10T18:24:19.017Z,63768.96
2019-05-10T18:26:45.239Z,63757.00
2019-05-10T18:29:11.516Z,63750.83
2019-05-10T18:31:37.761Z,63748.62
2019-05-10T18:34:04.000Z,63738.30
2019-05-10T18:36:50.422Z,63730.28
2019-05-10T18:38:58.387Z,63719.96
2019-05-10T18:41:24.623Z,63716.32
2019-05-10T18:43:50.860Z,63709.73
2019-05-10T18:46:17.107Z,63705.34
2019-05-10T18:48:43.347Z,63703.59
2019-05-10T18:51:09.594Z,63693.59
2019-05-10T18:53:35.884Z,63691.61
2019-05-10T18:56:02.243Z,63693.91
2019-05-10T18:58:31.296Z,63689.84
2019-05-10T19:01:00.794Z,63683.59
2019-05-10T19:03:28.003Z,63668.88
2019-05-10T19:05:52.946Z,63667.66
2019-05-10T19:08:19.175Z,63662.18
2019-05-10T19:10:45.413Z,63655.92
2019-05-10T19:13:12.003Z,63651.32
2019-05-10T19:15:38.598Z,63645.50
2019-05-10T19:18:04.824Z,63634.63
2019-05-10T19:20:31.101Z,63630.58
2019-05-10T19:22:57.336Z,63633.50
2019-05-10T19:25:23.595Z,63618.73
2019-05-10T19:27:50.995Z,63610.28
2019-05-10T19:30:19.903Z,63604.67
2019-05-10T19:32:45.628Z,63598.85
2019-05-10T19:35:11.850Z,63597.42
2019-05-10T19:37:38.100Z,63592.47
2019-05-10T19:40:06.241Z,63589.18
2019-05-10T19:42:37.303Z,63580.05
2019-05-10T19:45:00.610Z,63571.18
2019-05-10T19:47:26.857Z,63567.43
2019-05-10T19:49:53.524Z,63564.48
2019-05-10T19:52:21.285Z,63558.23
2019-05-10T19:54:48.192Z,63553.62
2019-05-10T19:57:16.250Z,63553.97
2019-05-10T19:59:43.995Z,63554.93
2019-05-10T20:02:10.831Z,63439.62
2019-05-10T20:04:37.065Z,63544.18
2019-05-10T20:07:03.421Z,63540.01
2019-05-10T20:09:29.645Z,63533.43
2019-05-10T20:11:55.988Z,63521.07
2019-05-10T20:14:22.224Z,63518.19
2019-05-10T20:16:52.829Z,63508.58
2019-05-10T20:19:16.616Z,63507.57
2019-05-10T20:21:42.861Z,63507.11
2019-05-10T20:24:09.102Z,63505.25
2019-05-10T20:26:35.328Z,63505.59
2019-05-10T20:29:01.583Z,63502.63
2019-05-10T20:31:30.637Z,63496.40
2019-05-10T20:33:55.960Z,63492.30
2019-05-10T20:36:22.185Z,63484.77
2019-05-10T20:38:48.431Z,63480.38
2019-05-10T20:41:14.665Z,63480.79
2019-05-10T20:43:40.910Z,63481.69
2019-05-10T20:46:07.347Z,63481.25
2019-05-10T20:48:33.661Z,63480.38
2019-05-10T20:50:59.937Z,63481.02
2019-05-10T20:53:26.199Z,63476.43
2019-05-10T20:55:52.431Z,63474.22
2019-05-10T20:58:18.689Z,63472.04
2019-05-10T21:00:44.901Z,63461.74
2019-05-10T21:03:11.140Z,63457.58
2019-05-10T21:05:37.396Z,63454.07
2019-05-10T21:08:16.074Z,63451.12
2019-05-10T21:10:31.787Z,63453.40
2019-05-10T21:12:58.025Z,63450.23
2019-05-10T21:15:24.268Z,63450.66
2019-05-10T21:17:50.510Z,63442.70
2019-05-10T21:20:16.757Z,63442.55
2019-05-10T21:22:43.001Z,63444.41
2019-05-10T21:25:09.244Z,63440.17
2019-05-10T21:27:35.473Z,63358.33
2019-05-10T21:30:01.814Z,63436.88
2019-05-10T21:32:28.053Z,63435.43
2019-05-10T21:34:54.288Z,63437.50
2019-05-10T21:37:20.526Z,63429.96
2019-05-10T21:39:46.771Z,63429.50
2019-05-10T21:42:13.009Z,63424.16
2019-05-10T21:44:39.256Z,63417.59
2019-05-10T21:47:05.487Z,63409.27
2019-05-10T21:49:31.749Z,63409.36
2019-05-10T21:51:57.983Z,63409.02
2019-05-10T21:54:24.229Z,63406.29
2019-05-10T21:56:50.477Z,63402.57
2019-05-10T21:59:16.706Z,63399.95
2019-05-10T22:01:42.943Z,63399.63
2019-05-10T22:04:09.168Z,63400.18
2019-05-10T22:06:35.418Z,63402.57
2019-05-10T22:09:01.646Z,63399.29
2019-05-10T22:11:27.889Z,63399.51
2019-05-10T22:13:54.115Z,63396.98
2019-05-10T22:16:20.386Z,63386.61
2019-05-10T22:18:48.402Z,63385.60
2019-05-10T22:21:14.654Z,63379.36
2019-05-10T22:23:40.888Z,63379.77
2019-05-10T22:26:07.149Z,63371.46
2019-05-10T22:28:33.381Z,63373.95
2019-05-10T22:30:59.619Z,63372.85
2019-05-10T22:33:25.851Z,63369.48
2019-05-10T22:35:52.094Z,63368.93
2019-05-10T22:38:18.329Z,63370.79
2019-05-10T22:40:44.556Z,63373.95
2019-05-10T22:43:10.805Z,63369.48
2019-05-10T22:45:37.055Z,63365.65
2019-05-10T22:48:03.294Z,63355.92
2019-05-10T22:50:29.541Z,63353.62
2019-05-10T22:52:55.797Z,63349.79
2019-05-10T22:55:22.022Z,63349.44
2019-05-10T22:57:48.265Z,63347.26
2019-05-10T23:00:14.817Z,63344.09
2019-05-10T23:02:41.061Z,63343.22
2019-05-10T23:05:07.395Z,63342.99
2019-05-10T23:07:33.626Z,63340.61
2019-05-10T23:09:59.969Z,63344.73
2019-05-10T23:12:26.208Z,63339.25
2019-05-10T23:14:52.448Z,63335.44
2019-05-10T23:17:18.691Z,63325.48
2019-05-10T23:19:44.934Z,63325.02
2019-05-10T23:22:11.178Z,63319.13
2019-05-10T23:24:40.381Z,63319.01
2019-05-10T23:27:06.923Z,63316.27
2019-05-10T23:29:33.261Z,63308.96
2019-05-10T23:31:59.490Z,63302.37
2019-05-10T23:34:25.740Z,63296.71
2019-05-10T23:36:51.974Z,63287.39
2019-05-10T23:39:18.217Z,63279.96
2019-05-10T23:41:44.444Z,63277.98
2019-05-10T23:44:10.700Z,63272.07
2019-05-10T23:46:36.921Z,63274.15
2019-05-10T23:49:03.182Z,63270.64
2019-05-10T23:51:29.433Z,63270.99
2019-05-10T23:53:55.679Z,63273.38
2019-05-10T23:56:21.907Z,63272.07
2019-05-10T23:58:48.156Z,63270.85
